Smithton, Missouri
Current Conditions -  °F | °C
As of 10:53 PM on Saturday 25 Oct 2014 (Local Time) from KDMO Reporting Station
Clear Clear  
Wind Chill: 65°   Ceiling: Unl
Heat Index: 65°   Visibility: 9mi
Dew Point: 53°   Wind: 3mph
Humidity: 65%   Direction: 90°E
Pressure: 30.03"   Gusts: NA
Location:  38.68°N, 93.09°W
Report Text: KDMO 260353Z AUTO 09003KT 9SM CLR 18/12 A3003 RMK AO2 SLP164 T01830117
Loading
Personal Weather Stations






























Interactive Weather Map New forecast layout! Learn more

10-Day Weather Forecast

Advertisements
Track Severe Weather on mobile